sensor_id;sensor_type;location;lat;lon;timestamp;P1;durP1;ratioP1;P2;durP2;ratioP2
54849;SDS011;47660;51.334;12.396;2022-09-12T00:01:44;4.80;;;2.95;;
54849;SDS011;47660;51.334;12.396;2022-09-12T00:04:09;7.10;;;3.38;;
54849;SDS011;47660;51.334;12.396;2022-09-12T00:06:36;7.10;;;3.03;;
54849;SDS011;47660;51.334;12.396;2022-09-12T00:09:03;6.68;;;3.15;;
54849;SDS011;47660;51.334;12.396;2022-09-12T00:11:28;6.03;;;3.45;;
54849;SDS011;47660;51.334;12.396;2022-09-12T00:13:54;6.10;;;3.30;;
54849;SDS011;47660;51.334;12.396;2022-09-12T00:16:21;7.53;;;3.80;;
54849;SDS011;47660;51.334;12.396;2022-09-12T00:18:49;6.47;;;3.88;;
54849;SDS011;47660;51.334;12.396;2022-09-12T00:21:15;6.53;;;3.80;;
54849;SDS011;47660;51.334;12.396;2022-09-12T00:23:41;8.45;;;3.63;;
54849;SDS011;47660;51.334;12.396;2022-09-12T00:26:07;6.97;;;2.95;;
54849;SDS011;47660;51.334;12.396;2022-09-12T00:28:33;7.50;;;3.85;;
54849;SDS011;47660;51.334;12.396;2022-09-12T00:30:58;6.35;;;3.33;;
54849;SDS011;47660;51.334;12.396;2022-09-12T00:33:23;6.97;;;3.50;;
54849;SDS011;47660;51.334;12.396;2022-09-12T00:35:51;10.80;;;4.38;;
54849;SDS011;47660;51.334;12.396;2022-09-12T00:38:19;10.30;;;4.45;;
54849;SDS011;47660;51.334;12.396;2022-09-12T00:40:45;5.75;;;3.30;;
54849;SDS011;47660;51.334;12.396;2022-09-12T00:43:14;9.63;;;3.50;;
54849;SDS011;47660;51.334;12.396;2022-09-12T00:45:58;7.53;;;2.90;;
54849;SDS011;47660;51.334;12.396;2022-09-12T00:48:31;9.43;;;3.53;;
54849;SDS011;47660;51.334;12.396;2022-09-12T00:50:57;8.20;;;3.80;;
54849;SDS011;47660;51.334;12.396;2022-09-12T00:53:23;7.40;;;4.20;;
54849;SDS011;47660;51.334;12.396;2022-09-12T00:55:49;5.78;;;3.60;;
54849;SDS011;47660;51.334;12.396;2022-09-12T00:58:22;8.35;;;4.40;;
54849;SDS011;47660;51.334;12.396;2022-09-12T01:00:48;5.75;;;3.78;;
54849;SDS011;47660;51.334;12.396;2022-09-12T01:03:15;6.68;;;3.63;;
54849;SDS011;47660;51.334;12.396;2022-09-12T01:05:43;7.40;;;3.80;;
54849;SDS011;47660;51.334;12.396;2022-09-12T01:08:10;5.30;;;3.42;;
54849;SDS011;47660;51.334;12.396;2022-09-12T01:10:39;5.75;;;3.45;;
54849;SDS011;47660;51.334;12.396;2022-09-12T01:13:07;6.07;;;3.38;;
54849;SDS011;47660;51.334;12.396;2022-09-12T01:15:33;5.20;;;3.20;;
54849;SDS011;47660;51.334;12.396;2022-09-12T01:25:57;8.43;;;3.85;;
54849;SDS011;47660;51.334;12.396;2022-09-12T01:31:07;6.35;;;3.95;;
54849;SDS011;47660;51.334;12.396;2022-09-12T01:38:49;12.02;;;3.80;;
54849;SDS011;47660;51.334;12.396;2022-09-12T01:46:42;8.50;;;3.35;;
54849;SDS011;47660;51.334;12.396;2022-09-12T01:51:38;7.30;;;4.43;;
54849;SDS011;47660;51.334;12.396;2022-09-12T01:54:06;8.32;;;4.30;;
54849;SDS011;47660;51.334;12.396;2022-09-12T01:56:34;9.80;;;4.47;;
54849;SDS011;47660;51.334;12.396;2022-09-12T01:59:07;10.57;;;4.20;;
54849;SDS011;47660;51.334;12.396;2022-09-12T02:01:34;6.97;;;3.95;;
54849;SDS011;47660;51.334;12.396;2022-09-12T02:06:30;6.38;;;3.38;;
54849;SDS011;47660;51.334;12.396;2022-09-12T02:08:58;9.70;;;4.35;;
54849;SDS011;47660;51.334;12.396;2022-09-12T02:11:25;10.43;;;4.28;;
54849;SDS011;47660;51.334;12.396;2022-09-12T02:13:55;16.33;;;4.45;;
54849;SDS011;47660;51.334;12.396;2022-09-12T02:16:31;8.00;;;3.88;;
54849;SDS011;47660;51.334;12.396;2022-09-12T02:19:00;11.07;;;4.82;;
54849;SDS011;47660;51.334;12.396;2022-09-12T02:21:27;8.50;;;4.13;;
54849;SDS011;47660;51.334;12.396;2022-09-12T02:23:57;8.38;;;4.25;;
54849;SDS011;47660;51.334;12.396;2022-09-12T02:26:26;9.60;;;4.43;;
54849;SDS011;47660;51.334;12.396;2022-09-12T02:28:53;7.75;;;4.20;;
54849;SDS011;47660;51.334;12.396;2022-09-12T02:31:22;7.60;;;3.80;;
54849;SDS011;47660;51.334;12.396;2022-09-12T02:39:18;7.82;;;3.50;;
54849;SDS011;47660;51.334;12.396;2022-09-12T02:41:46;8.43;;;4.15;;
54849;SDS011;47660;51.334;12.396;2022-09-12T02:44:12;6.90;;;3.65;;
54849;SDS011;47660;51.334;12.396;2022-09-12T02:46:41;9.65;;;4.68;;
54849;SDS011;47660;51.334;12.396;2022-09-12T02:49:08;10.20;;;4.28;;
54849;SDS011;47660;51.334;12.396;2022-09-12T02:51:33;10.80;;;5.00;;
54849;SDS011;47660;51.334;12.396;2022-09-12T02:53:59;8.70;;;4.93;;
54849;SDS011;47660;51.334;12.396;2022-09-12T02:56:27;7.00;;;3.85;;
54849;SDS011;47660;51.334;12.396;2022-09-12T02:58:57;9.27;;;4.32;;
54849;SDS011;47660;51.334;12.396;2022-09-12T03:04:10;11.13;;;4.93;;
54849;SDS011;47660;51.334;12.396;2022-09-12T03:22:14;10.20;;;4.77;;
54849;SDS011;47660;51.334;12.396;2022-09-12T03:27:37;6.70;;;3.45;;
54849;SDS011;47660;51.334;12.396;2022-09-12T03:30:06;9.07;;;4.28;;
54849;SDS011;47660;51.334;12.396;2022-09-12T03:32:39;9.85;;;4.30;;
54849;SDS011;47660;51.334;12.396;2022-09-12T03:35:07;10.98;;;5.18;;
54849;SDS011;47660;51.334;12.396;2022-09-12T03:37:32;9.30;;;4.55;;
54849;SDS011;47660;51.334;12.396;2022-09-12T03:39:57;9.40;;;4.43;;
54849;SDS011;47660;51.334;12.396;2022-09-12T03:42:22;10.53;;;4.13;;
54849;SDS011;47660;51.334;12.396;2022-09-12T03:44:48;10.50;;;4.93;;
54849;SDS011;47660;51.334;12.396;2022-09-12T03:47:13;9.67;;;5.23;;
54849;SDS011;47660;51.334;12.396;2022-09-12T03:49:38;9.75;;;4.25;;
54849;SDS011;47660;51.334;12.396;2022-09-12T03:52:04;9.90;;;4.97;;
54849;SDS011;47660;51.334;12.396;2022-09-12T03:54:29;8.63;;;4.78;;
54849;SDS011;47660;51.334;12.396;2022-09-12T03:56:54;8.82;;;5.22;;
54849;SDS011;47660;51.334;12.396;2022-09-12T03:59:22;9.63;;;4.73;;
54849;SDS011;47660;51.334;12.396;2022-09-12T04:01:47;7.80;;;4.38;;
54849;SDS011;47660;51.334;12.396;2022-09-12T04:04:12;8.93;;;4.22;;
54849;SDS011;47660;51.334;12.396;2022-09-12T04:06:38;9.40;;;4.65;;
54849;SDS011;47660;51.334;12.396;2022-09-12T04:09:03;11.18;;;5.18;;
54849;SDS011;47660;51.334;12.396;2022-09-12T04:11:30;10.60;;;5.10;;
54849;SDS011;47660;51.334;12.396;2022-09-12T04:13:56;12.45;;;5.40;;
54849;SDS011;47660;51.334;12.396;2022-09-12T04:16:21;10.43;;;4.78;;
54849;SDS011;47660;51.334;12.396;2022-09-12T04:18:47;13.02;;;5.40;;
54849;SDS011;47660;51.334;12.396;2022-09-12T04:21:14;9.30;;;4.90;;
54849;SDS011;47660;51.334;12.396;2022-09-12T04:23:39;9.55;;;4.60;;
54849;SDS011;47660;51.334;12.396;2022-09-12T04:26:04;12.80;;;5.35;;
54849;SDS011;47660;51.334;12.396;2022-09-12T04:28:33;9.73;;;5.05;;
54849;SDS011;47660;51.334;12.396;2022-09-12T04:31:02;10.90;;;5.38;;
54849;SDS011;47660;51.334;12.396;2022-09-12T04:33:28;9.40;;;4.65;;
54849;SDS011;47660;51.334;12.396;2022-09-12T04:35:53;10.30;;;4.43;;
54849;SDS011;47660;51.334;12.396;2022-09-12T04:38:19;18.03;;;6.37;;
54849;SDS011;47660;51.334;12.396;2022-09-12T04:40:44;8.25;;;4.70;;
54849;SDS011;47660;51.334;12.396;2022-09-12T04:43:09;11.00;;;5.57;;
54849;SDS011;47660;51.334;12.396;2022-09-12T04:45:37;11.82;;;5.30;;
54849;SDS011;47660;51.334;12.396;2022-09-12T04:48:02;9.07;;;4.50;;
54849;SDS011;47660;51.334;12.396;2022-09-12T04:50:27;10.45;;;4.88;;
54849;SDS011;47660;51.334;12.396;2022-09-12T04:52:53;9.98;;;5.00;;
54849;SDS011;47660;51.334;12.396;2022-09-12T04:55:18;8.70;;;4.82;;
54849;SDS011;47660;51.334;12.396;2022-09-12T04:57:44;11.45;;;5.55;;
54849;SDS011;47660;51.334;12.396;2022-09-12T05:00:09;15.60;;;5.57;;
54849;SDS011;47660;51.334;12.396;2022-09-12T05:02:41;9.65;;;4.82;;
54849;SDS011;47660;51.334;12.396;2022-09-12T05:05:07;9.90;;;4.97;;
54849;SDS011;47660;51.334;12.396;2022-09-12T05:07:34;10.85;;;5.00;;
54849;SDS011;47660;51.334;12.396;2022-09-12T05:10:02;10.90;;;5.15;;
54849;SDS011;47660;51.334;12.396;2022-09-12T05:12:29;12.95;;;5.63;;
54849;SDS011;47660;51.334;12.396;2022-09-12T05:14:55;9.15;;;5.05;;
54849;SDS011;47660;51.334;12.396;2022-09-12T05:17:20;10.65;;;5.13;;
54849;SDS011;47660;51.334;12.396;2022-09-12T05:19:46;7.72;;;4.07;;
54849;SDS011;47660;51.334;12.396;2022-09-12T05:22:14;12.48;;;4.93;;
54849;SDS011;47660;51.334;12.396;2022-09-12T05:24:39;12.00;;;5.13;;
54849;SDS011;47660;51.334;12.396;2022-09-12T05:27:07;9.32;;;4.50;;
54849;SDS011;47660;51.334;12.396;2022-09-12T05:29:32;14.13;;;5.20;;
54849;SDS011;47660;51.334;12.396;2022-09-12T05:31:58;9.70;;;5.00;;
54849;SDS011;47660;51.334;12.396;2022-09-12T05:34:25;10.90;;;5.82;;
54849;SDS011;47660;51.334;12.396;2022-09-12T05:36:51;11.82;;;5.32;;
54849;SDS011;47660;51.334;12.396;2022-09-12T05:39:17;12.02;;;5.57;;
54849;SDS011;47660;51.334;12.396;2022-09-12T05:41:45;11.15;;;5.65;;
54849;SDS011;47660;51.334;12.396;2022-09-12T05:44:11;10.77;;;5.45;;
54849;SDS011;47660;51.334;12.396;2022-09-12T05:46:38;14.27;;;5.60;;
54849;SDS011;47660;51.334;12.396;2022-09-12T05:49:05;10.60;;;6.07;;
54849;SDS011;47660;51.334;12.396;2022-09-12T05:51:32;11.27;;;5.10;;
54849;SDS011;47660;51.334;12.396;2022-09-12T05:53:58;10.68;;;5.03;;
54849;SDS011;47660;51.334;12.396;2022-09-12T05:56:27;10.32;;;4.38;;
54849;SDS011;47660;51.334;12.396;2022-09-12T05:58:54;9.75;;;4.53;;
54849;SDS011;47660;51.334;12.396;2022-09-12T06:01:20;10.25;;;4.40;;
54849;SDS011;47660;51.334;12.396;2022-09-12T06:03:46;12.38;;;5.63;;
54849;SDS011;47660;51.334;12.396;2022-09-12T06:06:13;12.50;;;4.95;;
54849;SDS011;47660;51.334;12.396;2022-09-12T06:08:40;9.38;;;4.38;;
54849;SDS011;47660;51.334;12.396;2022-09-12T06:11:05;10.18;;;5.20;;
54849;SDS011;47660;51.334;12.396;2022-09-12T06:13:31;11.77;;;5.35;;
54849;SDS011;47660;51.334;12.396;2022-09-12T06:16:06;15.98;;;5.70;;
54849;SDS011;47660;51.334;12.396;2022-09-12T06:18:32;11.80;;;5.63;;
54849;SDS011;47660;51.334;12.396;2022-09-12T06:21:00;18.58;;;6.35;;
54849;SDS011;47660;51.334;12.396;2022-09-12T06:23:26;20.77;;;6.13;;
54849;SDS011;47660;51.334;12.396;2022-09-12T06:25:51;9.90;;;5.00;;
54849;SDS011;47660;51.334;12.396;2022-09-12T06:28:16;14.02;;;6.45;;
54849;SDS011;47660;51.334;12.396;2022-09-12T06:30:42;10.60;;;5.72;;
54849;SDS011;47660;51.334;12.396;2022-09-12T06:33:07;10.35;;;4.90;;
54849;SDS011;47660;51.334;12.396;2022-09-12T06:35:34;8.57;;;4.93;;
54849;SDS011;47660;51.334;12.396;2022-09-12T06:38:00;10.88;;;5.32;;
54849;SDS011;47660;51.334;12.396;2022-09-12T06:40:25;14.50;;;5.50;;
54849;SDS011;47660;51.334;12.396;2022-09-12T06:42:51;9.93;;;5.35;;
54849;SDS011;47660;51.334;12.396;2022-09-12T06:45:16;7.78;;;4.78;;
54849;SDS011;47660;51.334;12.396;2022-09-12T06:47:44;10.10;;;5.55;;
54849;SDS011;47660;51.334;12.396;2022-09-12T06:50:09;9.30;;;4.95;;
54849;SDS011;47660;51.334;12.396;2022-09-12T06:52:35;11.45;;;5.13;;
54849;SDS011;47660;51.334;12.396;2022-09-12T06:55:00;12.50;;;5.28;;
54849;SDS011;47660;51.334;12.396;2022-09-12T06:57:27;11.20;;;5.75;;
54849;SDS011;47660;51.334;12.396;2022-09-12T06:59:55;9.93;;;5.20;;
54849;SDS011;47660;51.334;12.396;2022-09-12T07:02:23;12.70;;;5.57;;
54849;SDS011;47660;51.334;12.396;2022-09-12T07:04:49;13.45;;;4.72;;
54849;SDS011;47660;51.334;12.396;2022-09-12T07:07:15;14.38;;;5.22;;
54849;SDS011;47660;51.334;12.396;2022-09-12T07:09:41;12.38;;;5.32;;
54849;SDS011;47660;51.334;12.396;2022-09-12T07:12:09;10.25;;;4.40;;
54849;SDS011;47660;51.334;12.396;2022-09-12T07:14:34;11.80;;;6.07;;
54849;SDS011;47660;51.334;12.396;2022-09-12T07:17:02;9.38;;;4.82;;
54849;SDS011;47660;51.334;12.396;2022-09-12T07:19:27;10.43;;;4.28;;
54849;SDS011;47660;51.334;12.396;2022-09-12T07:21:55;8.18;;;5.40;;
54849;SDS011;47660;51.334;12.396;2022-09-12T07:24:20;12.05;;;4.88;;
54849;SDS011;47660;51.334;12.396;2022-09-12T07:26:48;11.40;;;4.65;;
54849;SDS011;47660;51.334;12.396;2022-09-12T07:29:14;11.57;;;4.88;;
54849;SDS011;47660;51.334;12.396;2022-09-12T07:31:43;9.48;;;5.18;;
54849;SDS011;47660;51.334;12.396;2022-09-12T07:34:08;9.93;;;5.40;;
54849;SDS011;47660;51.334;12.396;2022-09-12T07:36:34;10.27;;;4.72;;
54849;SDS011;47660;51.334;12.396;2022-09-12T07:38:59;10.38;;;4.97;;
54849;SDS011;47660;51.334;12.396;2022-09-12T07:41:25;8.93;;;4.45;;
54849;SDS011;47660;51.334;12.396;2022-09-12T07:43:54;9.77;;;5.05;;
54849;SDS011;47660;51.334;12.396;2022-09-12T07:46:23;11.57;;;5.57;;
54849;SDS011;47660;51.334;12.396;2022-09-12T07:48:52;11.18;;;4.55;;
54849;SDS011;47660;51.334;12.396;2022-09-12T07:51:17;11.65;;;4.78;;
54849;SDS011;47660;51.334;12.396;2022-09-12T07:53:43;16.73;;;5.45;;
54849;SDS011;47660;51.334;12.396;2022-09-12T07:56:11;11.30;;;5.00;;
54849;SDS011;47660;51.334;12.396;2022-09-12T07:58:37;7.85;;;4.20;;
54849;SDS011;47660;51.334;12.396;2022-09-12T08:03:31;9.50;;;4.25;;
54849;SDS011;47660;51.334;12.396;2022-09-12T08:06:29;9.18;;;5.25;;
54849;SDS011;47660;51.334;12.396;2022-09-12T08:08:48;9.48;;;4.40;;
54849;SDS011;47660;51.334;12.396;2022-09-12T08:11:14;9.15;;;4.07;;
54849;SDS011;47660;51.334;12.396;2022-09-12T08:13:40;8.18;;;3.97;;
54849;SDS011;47660;51.334;12.396;2022-09-12T08:16:07;10.98;;;4.88;;
54849;SDS011;47660;51.334;12.396;2022-09-12T08:18:33;7.20;;;3.70;;
54849;SDS011;47660;51.334;12.396;2022-09-12T08:21:00;7.03;;;3.70;;
54849;SDS011;47660;51.334;12.396;2022-09-12T08:23:26;8.98;;;4.63;;
54849;SDS011;47660;51.334;12.396;2022-09-12T08:25:56;9.27;;;3.55;;
54849;SDS011;47660;51.334;12.396;2022-09-12T08:28:22;9.50;;;3.65;;
54849;SDS011;47660;51.334;12.396;2022-09-12T08:30:47;7.80;;;3.42;;
54849;SDS011;47660;51.334;12.396;2022-09-12T08:33:13;7.93;;;3.83;;
54849;SDS011;47660;51.334;12.396;2022-09-12T08:35:39;7.25;;;3.95;;
54849;SDS011;47660;51.334;12.396;2022-09-12T08:38:04;5.97;;;3.70;;
54849;SDS011;47660;51.334;12.396;2022-09-12T08:40:29;7.40;;;3.75;;
54849;SDS011;47660;51.334;12.396;2022-09-12T08:43:02;6.68;;;4.05;;
54849;SDS011;47660;51.334;12.396;2022-09-12T08:45:32;6.78;;;3.30;;
54849;SDS011;47660;51.334;12.396;2022-09-12T08:47:59;8.07;;;3.13;;
54849;SDS011;47660;51.334;12.396;2022-09-12T08:50:29;8.15;;;3.83;;
54849;SDS011;47660;51.334;12.396;2022-09-12T08:53:03;4.72;;;2.92;;
54849;SDS011;47660;51.334;12.396;2022-09-12T08:55:35;6.97;;;3.50;;
54849;SDS011;47660;51.334;12.396;2022-09-12T08:58:05;7.95;;;3.45;;
54849;SDS011;47660;51.334;12.396;2022-09-12T09:00:40;5.70;;;3.85;;
54849;SDS011;47660;51.334;12.396;2022-09-12T09:05:56;5.68;;;2.95;;
54849;SDS011;47660;51.334;12.396;2022-09-12T09:18:43;5.22;;;2.92;;
54849;SDS011;47660;51.334;12.396;2022-09-12T09:24:04;4.78;;;2.65;;
54849;SDS011;47660;51.334;12.396;2022-09-12T09:29:33;6.15;;;3.50;;
54849;SDS011;47660;51.334;12.396;2022-09-12T09:32:02;6.95;;;3.80;;
54849;SDS011;47660;51.334;12.396;2022-09-12T09:34:29;5.70;;;4.05;;
54849;SDS011;47660;51.334;12.396;2022-09-12T09:42:44;3.13;;;2.35;;
54849;SDS011;47660;51.334;12.396;2022-09-12T09:45:22;3.95;;;2.58;;
54849;SDS011;47660;51.334;12.396;2022-09-12T09:50:15;3.05;;;2.05;;
54849;SDS011;47660;51.334;12.396;2022-09-12T09:52:41;3.50;;;2.40;;
54849;SDS011;47660;51.334;12.396;2022-09-12T09:55:09;3.40;;;2.28;;
54849;SDS011;47660;51.334;12.396;2022-09-12T09:57:37;3.13;;;2.53;;
54849;SDS011;47660;51.334;12.396;2022-09-12T10:05:27;2.92;;;1.80;;
54849;SDS011;47660;51.334;12.396;2022-09-12T10:07:55;2.83;;;1.88;;
54849;SDS011;47660;51.334;12.396;2022-09-12T10:10:20;4.53;;;2.15;;
54849;SDS011;47660;51.334;12.396;2022-09-12T10:12:47;3.42;;;1.80;;
54849;SDS011;47660;51.334;12.396;2022-09-12T10:17:42;2.00;;;1.50;;
54849;SDS011;47660;51.334;12.396;2022-09-12T10:22:52;2.25;;;1.73;;
54849;SDS011;47660;51.334;12.396;2022-09-12T10:25:17;1.67;;;1.40;;
54849;SDS011;47660;51.334;12.396;2022-09-12T10:27:44;3.08;;;1.80;;
54849;SDS011;47660;51.334;12.396;2022-09-12T10:30:17;2.20;;;2.00;;
54849;SDS011;47660;51.334;12.396;2022-09-12T10:32:44;2.58;;;1.80;;
54849;SDS011;47660;51.334;12.396;2022-09-12T10:37:39;3.53;;;1.80;;
54849;SDS011;47660;51.334;12.396;2022-09-12T10:40:05;4.13;;;1.63;;
54849;SDS011;47660;51.334;12.396;2022-09-12T10:42:45;2.65;;;1.30;;
54849;SDS011;47660;51.334;12.396;2022-09-12T10:45:32;2.03;;;1.42;;
54849;SDS011;47660;51.334;12.396;2022-09-12T10:48:01;1.83;;;1.50;;
54849;SDS011;47660;51.334;12.396;2022-09-12T10:50:30;3.45;;;1.60;;
54849;SDS011;47660;51.334;12.396;2022-09-12T10:55:44;2.00;;;1.60;;
54849;SDS011;47660;51.334;12.396;2022-09-12T10:58:28;3.45;;;1.83;;
54849;SDS011;47660;51.334;12.396;2022-09-12T11:00:57;1.80;;;1.23;;
54849;SDS011;47660;51.334;12.396;2022-09-12T11:03:33;2.08;;;1.40;;
54849;SDS011;47660;51.334;12.396;2022-09-12T11:06:04;2.90;;;1.98;;
54849;SDS011;47660;51.334;12.396;2022-09-12T11:13:38;1.92;;;1.75;;
54849;SDS011;47660;51.334;12.396;2022-09-12T11:34:39;2.00;;;1.30;;
54849;SDS011;47660;51.334;12.396;2022-09-12T11:39:38;2.10;;;1.40;;
54849;SDS011;47660;51.334;12.396;2022-09-12T11:42:04;1.55;;;1.40;;
54849;SDS011;47660;51.334;12.396;2022-09-12T11:44:37;1.70;;;1.60;;
54849;SDS011;47660;51.334;12.396;2022-09-12T11:47:05;3.38;;;1.58;;
54849;SDS011;47660;51.334;12.396;2022-09-12T11:49:50;1.70;;;1.60;;
54849;SDS011;47660;51.334;12.396;2022-09-12T11:52:22;1.50;;;1.40;;
54849;SDS011;47660;51.334;12.396;2022-09-12T12:02:26;1.50;;;1.20;;
54849;SDS011;47660;51.334;12.396;2022-09-12T12:07:26;1.40;;;1.30;;
54849;SDS011;47660;51.334;12.396;2022-09-12T12:09:55;2.20;;;1.50;;
54849;SDS011;47660;51.334;12.396;2022-09-12T12:12:24;1.95;;;1.75;;
54849;SDS011;47660;51.334;12.396;2022-09-12T12:14:52;1.75;;;1.60;;
54849;SDS011;47660;51.334;12.396;2022-09-12T12:17:19;2.10;;;1.60;;
54849;SDS011;47660;51.334;12.396;2022-09-12T12:19:45;2.65;;;1.73;;
54849;SDS011;47660;51.334;12.396;2022-09-12T12:24:51;1.50;;;1.40;;
54849;SDS011;47660;51.334;12.396;2022-09-12T12:27:22;1.70;;;1.55;;
54849;SDS011;47660;51.334;12.396;2022-09-12T12:29:47;1.63;;;1.38;;
54849;SDS011;47660;51.334;12.396;2022-09-12T12:34:42;2.22;;;1.60;;
54849;SDS011;47660;51.334;12.396;2022-09-12T12:44:56;2.08;;;1.45;;
54849;SDS011;47660;51.334;12.396;2022-09-12T12:47:21;1.77;;;1.50;;
54849;SDS011;47660;51.334;12.396;2022-09-12T12:50:04;2.13;;;1.52;;
54849;SDS011;47660;51.334;12.396;2022-09-12T12:52:30;1.92;;;1.30;;
54849;SDS011;47660;51.334;12.396;2022-09-12T12:54:57;2.53;;;1.48;;
54849;SDS011;47660;51.334;12.396;2022-09-12T13:02:23;1.90;;;1.40;;
54849;SDS011;47660;51.334;12.396;2022-09-12T13:04:49;2.50;;;1.40;;
54849;SDS011;47660;51.334;12.396;2022-09-12T13:07:20;2.45;;;1.40;;
54849;SDS011;47660;51.334;12.396;2022-09-12T13:09:50;1.40;;;1.30;;
54849;SDS011;47660;51.334;12.396;2022-09-12T13:14:48;2.03;;;1.27;;
54849;SDS011;47660;51.334;12.396;2022-09-12T13:19:44;1.45;;;1.25;;
54849;SDS011;47660;51.334;12.396;2022-09-12T13:22:10;1.60;;;1.30;;
54849;SDS011;47660;51.334;12.396;2022-09-12T13:24:42;1.77;;;1.58;;
54849;SDS011;47660;51.334;12.396;2022-09-12T13:27:19;1.55;;;1.33;;
54849;SDS011;47660;51.334;12.396;2022-09-12T13:29:45;1.80;;;1.67;;
54849;SDS011;47660;51.334;12.396;2022-09-12T13:32:13;1.75;;;1.58;;
54849;SDS011;47660;51.334;12.396;2022-09-12T13:34:43;1.30;;;1.20;;
54849;SDS011;47660;51.334;12.396;2022-09-12T13:37:16;2.05;;;1.35;;
54849;SDS011;47660;51.334;12.396;2022-09-12T13:39:47;1.35;;;1.23;;
54849;SDS011;47660;51.334;12.396;2022-09-12T13:44:54;1.42;;;1.33;;
54849;SDS011;47660;51.334;12.396;2022-09-12T13:47:25;3.22;;;1.40;;
54849;SDS011;47660;51.334;12.396;2022-09-12T13:49:52;1.52;;;1.30;;
54849;SDS011;47660;51.334;12.396;2022-09-12T13:52:19;1.42;;;1.20;;
54849;SDS011;47660;51.334;12.396;2022-09-12T13:54:46;1.48;;;1.38;;
54849;SDS011;47660;51.334;12.396;2022-09-12T13:59:57;1.70;;;1.60;;
54849;SDS011;47660;51.334;12.396;2022-09-12T14:02:24;2.30;;;1.10;;
54849;SDS011;47660;51.334;12.396;2022-09-12T14:04:51;1.65;;;1.52;;
54849;SDS011;47660;51.334;12.396;2022-09-12T14:07:33;1.58;;;1.48;;
54849;SDS011;47660;51.334;12.396;2022-09-12T14:09:59;1.75;;;1.50;;
54849;SDS011;47660;51.334;12.396;2022-09-12T14:12:26;1.80;;;1.52;;
54849;SDS011;47660;51.334;12.396;2022-09-12T14:14:53;2.55;;;1.50;;
54849;SDS011;47660;51.334;12.396;2022-09-12T14:17:31;1.40;;;1.30;;
54849;SDS011;47660;51.334;12.396;2022-09-12T14:20:00;1.63;;;1.50;;
54849;SDS011;47660;51.334;12.396;2022-09-12T14:22:27;1.85;;;1.75;;
54849;SDS011;47660;51.334;12.396;2022-09-12T14:24:56;2.13;;;1.90;;
54849;SDS011;47660;51.334;12.396;2022-09-12T14:27:24;2.05;;;1.65;;
54849;SDS011;47660;51.334;12.396;2022-09-12T14:30:01;2.17;;;1.88;;
54849;SDS011;47660;51.334;12.396;2022-09-12T14:32:26;2.05;;;1.67;;
54849;SDS011;47660;51.334;12.396;2022-09-12T14:37:36;2.42;;;1.75;;
54849;SDS011;47660;51.334;12.396;2022-09-12T14:40:01;1.60;;;1.50;;
54849;SDS011;47660;51.334;12.396;2022-09-12T14:42:29;2.65;;;1.90;;
54849;SDS011;47660;51.334;12.396;2022-09-12T14:44:55;2.42;;;1.80;;
54849;SDS011;47660;51.334;12.396;2022-09-12T14:47:25;3.50;;;2.10;;
54849;SDS011;47660;51.334;12.396;2022-09-12T14:49:51;2.10;;;1.73;;
54849;SDS011;47660;51.334;12.396;2022-09-12T14:52:28;4.35;;;1.95;;
54849;SDS011;47660;51.334;12.396;2022-09-12T14:54:57;2.17;;;1.80;;
54849;SDS011;47660;51.334;12.396;2022-09-12T14:57:30;2.33;;;1.65;;
54849;SDS011;47660;51.334;12.396;2022-09-12T15:00:31;1.88;;;1.60;;
54849;SDS011;47660;51.334;12.396;2022-09-12T15:02:50;2.65;;;1.52;;
54849;SDS011;47660;51.334;12.396;2022-09-12T15:05:17;1.80;;;1.55;;
54849;SDS011;47660;51.334;12.396;2022-09-12T15:08:12;3.00;;;1.52;;
54849;SDS011;47660;51.334;12.396;2022-09-12T15:15:30;2.00;;;1.40;;
54849;SDS011;47660;51.334;12.396;2022-09-12T15:17:58;2.35;;;1.85;;
54849;SDS011;47660;51.334;12.396;2022-09-12T15:20:23;1.60;;;1.50;;
54849;SDS011;47660;51.334;12.396;2022-09-12T15:22:49;7.88;;;1.70;;
54849;SDS011;47660;51.334;12.396;2022-09-12T15:25:14;1.58;;;1.48;;
54849;SDS011;47660;51.334;12.396;2022-09-12T15:27:42;1.70;;;1.60;;
54849;SDS011;47660;51.334;12.396;2022-09-12T15:30:07;2.55;;;1.73;;
54849;SDS011;47660;51.334;12.396;2022-09-12T15:32:34;5.00;;;2.13;;
54849;SDS011;47660;51.334;12.396;2022-09-12T15:35:00;2.08;;;1.80;;
54849;SDS011;47660;51.334;12.396;2022-09-12T15:37:25;1.77;;;1.67;;
54849;SDS011;47660;51.334;12.396;2022-09-12T15:39:51;1.90;;;1.52;;
54849;SDS011;47660;51.334;12.396;2022-09-12T15:42:26;2.25;;;1.75;;
54849;SDS011;47660;51.334;12.396;2022-09-12T15:44:53;7.88;;;4.03;;
54849;SDS011;47660;51.334;12.396;2022-09-12T15:47:18;17.67;;;7.23;;
54849;SDS011;47660;51.334;12.396;2022-09-12T15:49:47;10.13;;;4.40;;
54849;SDS011;47660;51.334;12.396;2022-09-12T15:52:15;3.65;;;2.00;;
54849;SDS011;47660;51.334;12.396;2022-09-12T15:54:41;5.55;;;2.75;;
54849;SDS011;47660;51.334;12.396;2022-09-12T15:57:07;2.00;;;1.65;;
54849;SDS011;47660;51.334;12.396;2022-09-12T15:59:32;2.00;;;1.50;;
54849;SDS011;47660;51.334;12.396;2022-09-12T16:01:57;2.13;;;1.93;;
54849;SDS011;47660;51.334;12.396;2022-09-12T16:04:24;2.83;;;2.35;;
54849;SDS011;47660;51.334;12.396;2022-09-12T16:06:50;2.63;;;1.90;;
54849;SDS011;47660;51.334;12.396;2022-09-12T16:09:15;3.72;;;1.90;;
54849;SDS011;47660;51.334;12.396;2022-09-12T16:11:40;3.03;;;2.20;;
54849;SDS011;47660;51.334;12.396;2022-09-12T16:14:06;2.03;;;1.80;;
54849;SDS011;47660;51.334;12.396;2022-09-12T16:16:33;2.30;;;2.03;;
54849;SDS011;47660;51.334;12.396;2022-09-12T16:18:59;2.28;;;2.08;;
54849;SDS011;47660;51.334;12.396;2022-09-12T16:21:24;1.83;;;1.60;;
54849;SDS011;47660;51.334;12.396;2022-09-12T16:23:50;3.28;;;1.77;;
54849;SDS011;47660;51.334;12.396;2022-09-12T16:26:15;2.13;;;1.80;;
54849;SDS011;47660;51.334;12.396;2022-09-12T16:28:41;2.13;;;1.70;;
54849;SDS011;47660;51.334;12.396;2022-09-12T16:31:07;2.00;;;1.67;;
54849;SDS011;47660;51.334;12.396;2022-09-12T16:33:33;2.53;;;2.10;;
54849;SDS011;47660;51.334;12.396;2022-09-12T16:36:01;3.33;;;1.80;;
54849;SDS011;47660;51.334;12.396;2022-09-12T16:38:27;3.00;;;1.90;;
54849;SDS011;47660;51.334;12.396;2022-09-12T16:40:58;3.33;;;1.60;;
54849;SDS011;47660;51.334;12.396;2022-09-12T16:43:23;6.85;;;1.75;;
54849;SDS011;47660;51.334;12.396;2022-09-12T16:45:52;2.03;;;1.67;;
54849;SDS011;47660;51.334;12.396;2022-09-12T16:48:23;1.80;;;1.65;;
54849;SDS011;47660;51.334;12.396;2022-09-12T16:50:54;1.50;;;1.40;;
54849;SDS011;47660;51.334;12.396;2022-09-12T16:53:19;2.33;;;1.58;;
54849;SDS011;47660;51.334;12.396;2022-09-12T16:55:48;2.42;;;1.70;;
54849;SDS011;47660;51.334;12.396;2022-09-12T16:58:13;1.92;;;1.55;;
54849;SDS011;47660;51.334;12.396;2022-09-12T17:00:38;1.53;;;1.43;;
54849;SDS011;47660;51.334;12.396;2022-09-12T17:03:06;2.75;;;1.80;;
54849;SDS011;47660;51.334;12.396;2022-09-12T17:05:35;2.50;;;1.60;;
54849;SDS011;47660;51.334;12.396;2022-09-12T17:08:00;2.33;;;1.80;;
54849;SDS011;47660;51.334;12.396;2022-09-12T17:10:26;5.38;;;1.80;;
54849;SDS011;47660;51.334;12.396;2022-09-12T17:12:54;2.20;;;1.63;;
54849;SDS011;47660;51.334;12.396;2022-09-12T17:15:19;2.03;;;1.63;;
54849;SDS011;47660;51.334;12.396;2022-09-12T17:17:44;1.80;;;1.70;;
54849;SDS011;47660;51.334;12.396;2022-09-12T17:20:10;4.00;;;1.77;;
54849;SDS011;47660;51.334;12.396;2022-09-12T17:22:35;4.35;;;1.80;;
54849;SDS011;47660;51.334;12.396;2022-09-12T17:25:00;8.63;;;1.70;;